sensor_id;sensor_type;location;lat;lon;timestamp;P1;durP1;ratioP1;P2;durP2;ratioP2
32323;SDS011;25666;44.350;9.222;2024-03-23T00:55:43;8.40;;;3.90;;
32323;SDS011;25666;44.350;9.222;2024-03-23T00:58:08;5.25;;;3.80;;
32323;SDS011;25666;44.350;9.222;2024-03-23T01:00:34;5.50;;;4.30;;
32323;SDS011;25666;44.350;9.222;2024-03-23T01:03:00;5.13;;;3.85;;
32323;SDS011;25666;44.350;9.222;2024-03-23T01:05:25;7.47;;;3.90;;
32323;SDS011;25666;44.350;9.222;2024-03-23T01:07:51;6.28;;;4.35;;
32323;SDS011;25666;44.350;9.222;2024-03-23T01:10:16;6.85;;;4.88;;
32323;SDS011;25666;44.350;9.222;2024-03-23T01:12:42;8.00;;;4.13;;
32323;SDS011;25666;44.350;9.222;2024-03-23T01:15:07;6.45;;;4.05;;
32323;SDS011;25666;44.350;9.222;2024-03-23T01:17:33;5.43;;;3.70;;
32323;SDS011;25666;44.350;9.222;2024-03-23T01:19:59;5.50;;;3.60;;
32323;SDS011;25666;44.350;9.222;2024-03-23T01:22:24;6.55;;;4.00;;
32323;SDS011;25666;44.350;9.222;2024-03-23T01:24:50;5.30;;;3.60;;
32323;SDS011;25666;44.350;9.222;2024-03-23T01:27:16;5.43;;;4.03;;
32323;SDS011;25666;44.350;9.222;2024-03-23T01:29:41;13.05;;;4.10;;
32323;SDS011;25666;44.350;9.222;2024-03-23T01:32:07;6.53;;;3.83;;
32323;SDS011;25666;44.350;9.222;2024-03-23T01:34:32;8.80;;;4.10;;
32323;SDS011;25666;44.350;9.222;2024-03-23T01:36:58;8.70;;;3.97;;
32323;SDS011;25666;44.350;9.222;2024-03-23T01:39:23;6.38;;;4.50;;
32323;SDS011;25666;44.350;9.222;2024-03-23T01:41:49;9.52;;;4.88;;
32323;SDS011;25666;44.350;9.222;2024-03-23T01:44:15;8.38;;;5.57;;
32323;SDS011;25666;44.350;9.222;2024-03-23T01:46:41;8.02;;;4.47;;
32323;SDS011;25666;44.350;9.222;2024-03-23T01:49:07;10.30;;;4.80;;
32323;SDS011;25666;44.350;9.222;2024-03-23T01:51:33;11.57;;;5.00;;
32323;SDS011;25666;44.350;9.222;2024-03-23T01:54:00;15.70;;;6.50;;
32323;SDS011;25666;44.350;9.222;2024-03-23T01:56:32;11.90;;;5.60;;
32323;SDS011;25666;44.350;9.222;2024-03-23T01:59:00;8.48;;;4.97;;
32323;SDS011;25666;44.350;9.222;2024-03-23T02:01:26;10.90;;;5.38;;
32323;SDS011;25666;44.350;9.222;2024-03-23T02:03:51;13.20;;;5.50;;
32323;SDS011;25666;44.350;9.222;2024-03-23T02:06:17;7.53;;;4.65;;
32323;SDS011;25666;44.350;9.222;2024-03-23T02:08:43;10.77;;;5.30;;
32323;SDS011;25666;44.350;9.222;2024-03-23T02:11:09;6.72;;;4.63;;
32323;SDS011;25666;44.350;9.222;2024-03-23T02:13:34;6.50;;;4.18;;
32323;SDS011;25666;44.350;9.222;2024-03-23T02:16:00;8.35;;;5.20;;
32323;SDS011;25666;44.350;9.222;2024-03-23T02:18:26;8.43;;;4.45;;
32323;SDS011;25666;44.350;9.222;2024-03-23T02:20:51;7.85;;;5.00;;
32323;SDS011;25666;44.350;9.222;2024-03-23T02:23:17;6.82;;;3.90;;
32323;SDS011;25666;44.350;9.222;2024-03-23T02:25:43;8.73;;;4.68;;
32323;SDS011;25666;44.350;9.222;2024-03-23T02:28:09;5.38;;;4.30;;
32323;SDS011;25666;44.350;9.222;2024-03-23T02:30:35;7.18;;;4.57;;
32323;SDS011;25666;44.350;9.222;2024-03-23T02:33:01;6.88;;;4.25;;
32323;SDS011;25666;44.350;9.222;2024-03-23T02:35:26;9.90;;;4.30;;
32323;SDS011;25666;44.350;9.222;2024-03-23T02:37:52;6.18;;;4.50;;
32323;SDS011;25666;44.350;9.222;2024-03-23T02:40:20;8.10;;;4.80;;
32323;SDS011;25666;44.350;9.222;2024-03-23T02:42:46;6.82;;;4.45;;
32323;SDS011;25666;44.350;9.222;2024-03-23T02:45:11;9.40;;;4.50;;
32323;SDS011;25666;44.350;9.222;2024-03-23T02:47:37;7.57;;;4.75;;
32323;SDS011;25666;44.350;9.222;2024-03-23T02:50:03;6.72;;;4.63;;
32323;SDS011;25666;44.350;9.222;2024-03-23T02:52:29;10.30;;;5.03;;
32323;SDS011;25666;44.350;9.222;2024-03-23T02:54:55;7.38;;;4.60;;
32323;SDS011;25666;44.350;9.222;2024-03-23T02:57:20;7.78;;;4.70;;
32323;SDS011;25666;44.350;9.222;2024-03-23T02:59:46;14.60;;;4.88;;
32323;SDS011;25666;44.350;9.222;2024-03-23T03:02:12;8.32;;;5.00;;
32323;SDS011;25666;44.350;9.222;2024-03-23T03:04:38;7.80;;;4.47;;
32323;SDS011;25666;44.350;9.222;2024-03-23T03:07:04;8.70;;;5.53;;
32323;SDS011;25666;44.350;9.222;2024-03-23T03:09:29;7.47;;;4.97;;
32323;SDS011;25666;44.350;9.222;2024-03-23T03:11:55;7.15;;;4.85;;
32323;SDS011;25666;44.350;9.222;2024-03-23T03:14:20;9.63;;;5.05;;
32323;SDS011;25666;44.350;9.222;2024-03-23T03:16:46;8.70;;;5.28;;
32323;SDS011;25666;44.350;9.222;2024-03-23T03:19:11;9.82;;;5.55;;
32323;SDS011;25666;44.350;9.222;2024-03-23T03:21:37;9.07;;;5.00;;
32323;SDS011;25666;44.350;9.222;2024-03-23T03:24:03;6.95;;;5.00;;
32323;SDS011;25666;44.350;9.222;2024-03-23T03:26:29;8.95;;;5.63;;
32323;SDS011;25666;44.350;9.222;2024-03-23T03:28:54;8.45;;;5.63;;
32323;SDS011;25666;44.350;9.222;2024-03-23T03:31:20;7.28;;;5.15;;
32323;SDS011;25666;44.350;9.222;2024-03-23T03:33:46;7.57;;;5.22;;
32323;SDS011;25666;44.350;9.222;2024-03-23T03:36:11;7.97;;;4.97;;
32323;SDS011;25666;44.350;9.222;2024-03-23T03:38:37;8.38;;;4.70;;
32323;SDS011;25666;44.350;9.222;2024-03-23T03:41:04;11.85;;;5.53;;
32323;SDS011;25666;44.350;9.222;2024-03-23T03:43:29;8.15;;;4.75;;
32323;SDS011;25666;44.350;9.222;2024-03-23T03:45:56;8.27;;;5.22;;
32323;SDS011;25666;44.350;9.222;2024-03-23T03:48:22;9.65;;;4.85;;
32323;SDS011;25666;44.350;9.222;2024-03-23T03:50:48;13.65;;;5.13;;
32323;SDS011;25666;44.350;9.222;2024-03-23T03:53:14;7.28;;;4.40;;
32323;SDS011;25666;44.350;9.222;2024-03-23T03:55:39;7.88;;;4.75;;
32323;SDS011;25666;44.350;9.222;2024-03-23T03:58:05;6.05;;;4.18;;
32323;SDS011;25666;44.350;9.222;2024-03-23T04:00:31;6.50;;;4.40;;
32323;SDS011;25666;44.350;9.222;2024-03-23T04:02:57;7.25;;;4.43;;
32323;SDS011;25666;44.350;9.222;2024-03-23T04:05:22;8.38;;;4.53;;
32323;SDS011;25666;44.350;9.222;2024-03-23T04:07:48;6.20;;;4.13;;
32323;SDS011;25666;44.350;9.222;2024-03-23T04:10:14;5.82;;;4.53;;
32323;SDS011;25666;44.350;9.222;2024-03-23T04:12:40;11.48;;;4.65;;
32323;SDS011;25666;44.350;9.222;2024-03-23T04:15:06;9.98;;;4.85;;
32323;SDS011;25666;44.350;9.222;2024-03-23T04:17:32;7.32;;;4.75;;
32323;SDS011;25666;44.350;9.222;2024-03-23T04:19:59;10.45;;;4.80;;
32323;SDS011;25666;44.350;9.222;2024-03-23T04:22:25;8.88;;;5.28;;
32323;SDS011;25666;44.350;9.222;2024-03-23T04:24:57;5.30;;;4.20;;
32323;SDS011;25666;44.350;9.222;2024-03-23T04:27:23;9.02;;;5.53;;
32323;SDS011;25666;44.350;9.222;2024-03-23T04:29:49;9.50;;;5.55;;
32323;SDS011;25666;44.350;9.222;2024-03-23T04:32:15;6.50;;;4.53;;
32323;SDS011;25666;44.350;9.222;2024-03-23T04:34:42;6.35;;;4.22;;
32323;SDS011;25666;44.350;9.222;2024-03-23T04:37:08;6.32;;;4.57;;
32323;SDS011;25666;44.350;9.222;2024-03-23T04:39:37;42.63;;;17.58;;
32323;SDS011;25666;44.350;9.222;2024-03-23T04:42:03;68.60;;;28.10;;
32323;SDS011;25666;44.350;9.222;2024-03-23T04:44:30;60.75;;;25.65;;
32323;SDS011;25666;44.350;9.222;2024-03-23T04:46:56;74.25;;;30.23;;
32323;SDS011;25666;44.350;9.222;2024-03-23T04:49:23;66.82;;;26.65;;
32323;SDS011;25666;44.350;9.222;2024-03-23T04:51:49;61.10;;;26.45;;
32323;SDS011;25666;44.350;9.222;2024-03-23T04:54:15;77.78;;;30.40;;
32323;SDS011;25666;44.350;9.222;2024-03-23T04:56:40;55.40;;;22.48;;
32323;SDS011;25666;44.350;9.222;2024-03-23T04:59:06;61.75;;;25.50;;
32323;SDS011;25666;44.350;9.222;2024-03-23T05:01:32;60.38;;;26.40;;
32323;SDS011;25666;44.350;9.222;2024-03-23T05:04:01;65.20;;;26.38;;
32323;SDS011;25666;44.350;9.222;2024-03-23T05:06:27;41.00;;;19.58;;
32323;SDS011;25666;44.350;9.222;2024-03-23T05:08:53;41.95;;;18.50;;
32323;SDS011;25666;44.350;9.222;2024-03-23T05:11:19;35.85;;;16.77;;
32323;SDS011;25666;44.350;9.222;2024-03-23T05:13:45;35.50;;;15.45;;
32323;SDS011;25666;44.350;9.222;2024-03-23T05:16:11;30.23;;;13.23;;
32323;SDS011;25666;44.350;9.222;2024-03-23T05:18:37;36.70;;;15.20;;
32323;SDS011;25666;44.350;9.222;2024-03-23T05:21:02;34.35;;;16.65;;
32323;SDS011;25666;44.350;9.222;2024-03-23T05:23:28;40.63;;;15.45;;
32323;SDS011;25666;44.350;9.222;2024-03-23T05:25:54;42.83;;;17.83;;
32323;SDS011;25666;44.350;9.222;2024-03-23T05:28:20;40.00;;;16.88;;
32323;SDS011;25666;44.350;9.222;2024-03-23T05:30:50;44.22;;;19.77;;
32323;SDS011;25666;44.350;9.222;2024-03-23T05:33:19;47.60;;;18.45;;
32323;SDS011;25666;44.350;9.222;2024-03-23T05:35:45;48.60;;;21.60;;
32323;SDS011;25666;44.350;9.222;2024-03-23T05:38:11;43.90;;;19.27;;
32323;SDS011;25666;44.350;9.222;2024-03-23T05:40:37;45.08;;;21.67;;
32323;SDS011;25666;44.350;9.222;2024-03-23T05:43:05;48.58;;;21.33;;
32323;SDS011;25666;44.350;9.222;2024-03-23T05:45:31;58.95;;;24.33;;
32323;SDS011;25666;44.350;9.222;2024-03-23T05:47:57;52.65;;;20.55;;
32323;SDS011;25666;44.350;9.222;2024-03-23T05:50:23;49.45;;;22.33;;
32323;SDS011;25666;44.350;9.222;2024-03-23T05:52:49;53.83;;;23.75;;
32323;SDS011;25666;44.350;9.222;2024-03-23T05:55:15;47.83;;;21.85;;
32323;SDS011;25666;44.350;9.222;2024-03-23T05:57:41;48.35;;;20.45;;
32323;SDS011;25666;44.350;9.222;2024-03-23T06:00:06;47.22;;;19.98;;
32323;SDS011;25666;44.350;9.222;2024-03-23T06:02:44;42.88;;;19.75;;
32323;SDS011;25666;44.350;9.222;2024-03-23T06:05:10;41.72;;;17.20;;
32323;SDS011;25666;44.350;9.222;2024-03-23T06:07:37;42.80;;;19.42;;
32323;SDS011;25666;44.350;9.222;2024-03-23T06:10:03;43.20;;;18.00;;
32323;SDS011;25666;44.350;9.222;2024-03-23T06:12:29;44.05;;;16.58;;
32323;SDS011;25666;44.350;9.222;2024-03-23T06:14:54;29.02;;;14.15;;
32323;SDS011;25666;44.350;9.222;2024-03-23T06:17:20;36.55;;;15.48;;
32323;SDS011;25666;44.350;9.222;2024-03-23T06:19:45;40.85;;;17.05;;
32323;SDS011;25666;44.350;9.222;2024-03-23T06:22:11;41.17;;;18.60;;
32323;SDS011;25666;44.350;9.222;2024-03-23T06:24:37;43.00;;;18.95;;
32323;SDS011;25666;44.350;9.222;2024-03-23T06:27:02;46.47;;;19.85;;
32323;SDS011;25666;44.350;9.222;2024-03-23T06:29:28;60.92;;;25.73;;
32323;SDS011;25666;44.350;9.222;2024-03-23T06:31:54;52.72;;;23.80;;
32323;SDS011;25666;44.350;9.222;2024-03-23T06:34:20;72.07;;;28.67;;
32323;SDS011;25666;44.350;9.222;2024-03-23T06:36:47;75.80;;;31.10;;
32323;SDS011;25666;44.350;9.222;2024-03-23T06:39:12;94.65;;;36.80;;
32323;SDS011;25666;44.350;9.222;2024-03-23T06:41:41;107.82;;;39.70;;
32323;SDS011;25666;44.350;9.222;2024-03-23T06:44:07;107.63;;;44.67;;
32323;SDS011;25666;44.350;9.222;2024-03-23T06:46:33;83.68;;;36.33;;
32323;SDS011;25666;44.350;9.222;2024-03-23T06:48:58;94.07;;;40.80;;
32323;SDS011;25666;44.350;9.222;2024-03-23T06:51:24;121.05;;;48.70;;
32323;SDS011;25666;44.350;9.222;2024-03-23T06:53:49;118.65;;;47.13;;
32323;SDS011;25666;44.350;9.222;2024-03-23T06:56:15;111.10;;;45.55;;
32323;SDS011;25666;44.350;9.222;2024-03-23T06:58:40;115.20;;;46.90;;
32323;SDS011;25666;44.350;9.222;2024-03-23T07:01:06;129.75;;;51.92;;
32323;SDS011;25666;44.350;9.222;2024-03-23T07:03:32;164.77;;;65.03;;
32323;SDS011;25666;44.350;9.222;2024-03-23T07:05:58;154.05;;;65.00;;
32323;SDS011;25666;44.350;9.222;2024-03-23T07:08:24;150.40;;;57.63;;
32323;SDS011;25666;44.350;9.222;2024-03-23T07:10:49;130.07;;;53.17;;
32323;SDS011;25666;44.350;9.222;2024-03-23T07:13:15;138.02;;;60.63;;
32323;SDS011;25666;44.350;9.222;2024-03-23T07:15:42;133.25;;;54.60;;
32323;SDS011;25666;44.350;9.222;2024-03-23T07:18:07;130.13;;;54.67;;
32323;SDS011;25666;44.350;9.222;2024-03-23T07:20:33;133.00;;;58.05;;
32323;SDS011;25666;44.350;9.222;2024-03-23T07:22:59;121.03;;;50.33;;
32323;SDS011;25666;44.350;9.222;2024-03-23T07:25:24;119.60;;;48.75;;
32323;SDS011;25666;44.350;9.222;2024-03-23T07:27:53;47.80;;;24.45;;
32323;SDS011;25666;44.350;9.222;2024-03-23T07:30:18;44.00;;;19.30;;
32323;SDS011;25666;44.350;9.222;2024-03-23T07:32:44;34.22;;;16.23;;
32323;SDS011;25666;44.350;9.222;2024-03-23T07:35:10;31.67;;;14.82;;
32323;SDS011;25666;44.350;9.222;2024-03-23T07:37:35;31.60;;;15.00;;
32323;SDS011;25666;44.350;9.222;2024-03-23T07:40:01;30.13;;;13.75;;
32323;SDS011;25666;44.350;9.222;2024-03-23T07:42:27;21.70;;;10.77;;
32323;SDS011;25666;44.350;9.222;2024-03-23T07:44:53;24.60;;;12.00;;
32323;SDS011;25666;44.350;9.222;2024-03-23T07:47:20;28.60;;;10.80;;
32323;SDS011;25666;44.350;9.222;2024-03-23T07:49:46;18.17;;;10.57;;
32323;SDS011;25666;44.350;9.222;2024-03-23T07:52:12;19.67;;;10.48;;
32323;SDS011;25666;44.350;9.222;2024-03-23T07:54:38;15.27;;;8.20;;
32323;SDS011;25666;44.350;9.222;2024-03-23T07:57:03;20.27;;;8.18;;
32323;SDS011;25666;44.350;9.222;2024-03-23T07:59:29;21.55;;;9.05;;
32323;SDS011;25666;44.350;9.222;2024-03-23T08:01:57;16.95;;;8.20;;
32323;SDS011;25666;44.350;9.222;2024-03-23T08:04:22;17.25;;;7.53;;
32323;SDS011;25666;44.350;9.222;2024-03-23T08:06:48;15.38;;;6.22;;
32323;SDS011;25666;44.350;9.222;2024-03-23T08:09:13;13.43;;;7.38;;
32323;SDS011;25666;44.350;9.222;2024-03-23T08:11:39;15.57;;;5.85;;
32323;SDS011;25666;44.350;9.222;2024-03-23T08:14:04;11.95;;;6.40;;
32323;SDS011;25666;44.350;9.222;2024-03-23T08:16:31;22.65;;;7.82;;
32323;SDS011;25666;44.350;9.222;2024-03-23T08:18:56;12.73;;;7.50;;
32323;SDS011;25666;44.350;9.222;2024-03-23T08:21:22;11.70;;;6.22;;
32323;SDS011;25666;44.350;9.222;2024-03-23T08:23:47;14.68;;;5.53;;
32323;SDS011;25666;44.350;9.222;2024-03-23T08:26:15;12.23;;;5.10;;
32323;SDS011;25666;44.350;9.222;2024-03-23T08:28:41;15.80;;;5.38;;
32323;SDS011;25666;44.350;9.222;2024-03-23T08:31:07;11.68;;;5.30;;
32323;SDS011;25666;44.350;9.222;2024-03-23T08:33:34;13.65;;;4.95;;
32323;SDS011;25666;44.350;9.222;2024-03-23T08:36:02;10.52;;;4.95;;
32323;SDS011;25666;44.350;9.222;2024-03-23T08:38:29;13.00;;;5.05;;
32323;SDS011;25666;44.350;9.222;2024-03-23T08:43:27;13.15;;;5.13;;
32323;SDS011;25666;44.350;9.222;2024-03-23T08:45:53;10.52;;;4.53;;
32323;SDS011;25666;44.350;9.222;2024-03-23T08:48:19;11.25;;;5.05;;
32323;SDS011;25666;44.350;9.222;2024-03-23T08:50:46;13.70;;;4.80;;
32323;SDS011;25666;44.350;9.222;2024-03-23T08:53:12;11.48;;;5.15;;
32323;SDS011;25666;44.350;9.222;2024-03-23T08:55:38;10.52;;;4.88;;
32323;SDS011;25666;44.350;9.222;2024-03-23T08:58:04;12.43;;;4.75;;
32323;SDS011;25666;44.350;9.222;2024-03-23T09:00:33;12.55;;;5.55;;
32323;SDS011;25666;44.350;9.222;2024-03-23T09:02:59;13.25;;;5.03;;
32323;SDS011;25666;44.350;9.222;2024-03-23T09:05:27;10.20;;;4.43;;
32323;SDS011;25666;44.350;9.222;2024-03-23T09:07:54;13.18;;;4.63;;
32323;SDS011;25666;44.350;9.222;2024-03-23T09:10:19;9.60;;;4.50;;
32323;SDS011;25666;44.350;9.222;2024-03-23T09:12:45;10.00;;;3.72;;
32323;SDS011;25666;44.350;9.222;2024-03-23T09:15:11;10.20;;;4.15;;
32323;SDS011;25666;44.350;9.222;2024-03-23T09:17:36;14.90;;;6.68;;
32323;SDS011;25666;44.350;9.222;2024-03-23T09:20:02;15.93;;;4.63;;
32323;SDS011;25666;44.350;9.222;2024-03-23T09:22:29;11.70;;;5.68;;
32323;SDS011;25666;44.350;9.222;2024-03-23T09:24:55;11.52;;;5.10;;
32323;SDS011;25666;44.350;9.222;2024-03-23T09:27:20;16.38;;;5.93;;
32323;SDS011;25666;44.350;9.222;2024-03-23T09:29:46;13.75;;;5.25;;
32323;SDS011;25666;44.350;9.222;2024-03-23T09:32:12;11.88;;;5.15;;
32323;SDS011;25666;44.350;9.222;2024-03-23T09:34:38;13.95;;;5.45;;
32323;SDS011;25666;44.350;9.222;2024-03-23T09:37:03;14.45;;;5.15;;
32323;SDS011;25666;44.350;9.222;2024-03-23T09:39:29;10.77;;;6.10;;
32323;SDS011;25666;44.350;9.222;2024-03-23T09:41:58;13.00;;;4.97;;
32323;SDS011;25666;44.350;9.222;2024-03-23T09:44:24;21.65;;;6.75;;
32323;SDS011;25666;44.350;9.222;2024-03-23T09:46:51;15.40;;;5.60;;
32323;SDS011;25666;44.350;9.222;2024-03-23T09:49:18;13.32;;;5.82;;
32323;SDS011;25666;44.350;9.222;2024-03-23T09:51:44;12.18;;;6.32;;
32323;SDS011;25666;44.350;9.222;2024-03-23T09:54:09;15.82;;;6.15;;
32323;SDS011;25666;44.350;9.222;2024-03-23T09:56:36;11.93;;;4.75;;
32323;SDS011;25666;44.350;9.222;2024-03-23T09:59:02;14.15;;;5.55;;
32323;SDS011;25666;44.350;9.222;2024-03-23T10:01:31;16.10;;;5.47;;
32323;SDS011;25666;44.350;9.222;2024-03-23T10:03:58;20.85;;;5.50;;
32323;SDS011;25666;44.350;9.222;2024-03-23T10:06:23;15.15;;;5.65;;
32323;SDS011;25666;44.350;9.222;2024-03-23T10:08:52;11.38;;;4.93;;
32323;SDS011;25666;44.350;9.222;2024-03-23T10:11:20;9.75;;;4.25;;
32323;SDS011;25666;44.350;9.222;2024-03-23T10:13:46;12.30;;;5.25;;
32323;SDS011;25666;44.350;9.222;2024-03-23T10:16:20;14.70;;;4.70;;
32323;SDS011;25666;44.350;9.222;2024-03-23T10:18:47;8.02;;;4.18;;
32323;SDS011;25666;44.350;9.222;2024-03-23T10:21:14;12.88;;;5.15;;
32323;SDS011;25666;44.350;9.222;2024-03-23T10:23:44;10.80;;;4.95;;
32323;SDS011;25666;44.350;9.222;2024-03-23T10:26:14;14.73;;;5.38;;
32323;SDS011;25666;44.350;9.222;2024-03-23T10:31:20;10.60;;;4.50;;
32323;SDS011;25666;44.350;9.222;2024-03-23T10:33:46;11.20;;;4.50;;
32323;SDS011;25666;44.350;9.222;2024-03-23T10:36:13;15.27;;;5.00;;
32323;SDS011;25666;44.350;9.222;2024-03-23T10:38:43;8.80;;;4.15;;
32323;SDS011;25666;44.350;9.222;2024-03-23T10:41:10;14.50;;;4.95;;
32323;SDS011;25666;44.350;9.222;2024-03-23T10:43:36;14.27;;;5.72;;
32323;SDS011;25666;44.350;9.222;2024-03-23T10:46:03;14.90;;;5.18;;
32323;SDS011;25666;44.350;9.222;2024-03-23T10:48:31;8.57;;;3.72;;
32323;SDS011;25666;44.350;9.222;2024-03-23T10:50:57;11.02;;;5.30;;
32323;SDS011;25666;44.350;9.222;2024-03-23T10:53:25;18.05;;;4.53;;
32323;SDS011;25666;44.350;9.222;2024-03-23T10:55:52;8.73;;;4.22;;
32323;SDS011;25666;44.350;9.222;2024-03-23T10:58:21;16.20;;;4.55;;
32323;SDS011;25666;44.350;9.222;2024-03-23T11:03:31;9.35;;;5.03;;
32323;SDS011;25666;44.350;9.222;2024-03-23T11:06:02;9.23;;;4.47;;
32323;SDS011;25666;44.350;9.222;2024-03-23T11:08:33;12.13;;;5.00;;
32323;SDS011;25666;44.350;9.222;2024-03-23T11:11:20;14.23;;;5.45;;
32323;SDS011;25666;44.350;9.222;2024-03-23T11:13:50;18.48;;;5.10;;
32323;SDS011;25666;44.350;9.222;2024-03-23T11:16:24;13.57;;;4.88;;
32323;SDS011;25666;44.350;9.222;2024-03-23T11:22:01;9.55;;;4.15;;
32323;SDS011;25666;44.350;9.222;2024-03-23T11:24:28;12.40;;;5.10;;
32323;SDS011;25666;44.350;9.222;2024-03-23T11:26:54;9.40;;;4.32;;
32323;SDS011;25666;44.350;9.222;2024-03-23T11:29:19;10.25;;;4.88;;
32323;SDS011;25666;44.350;9.222;2024-03-23T11:31:49;12.75;;;5.38;;
32323;SDS011;25666;44.350;9.222;2024-03-23T11:34:17;10.00;;;5.55;;
32323;SDS011;25666;44.350;9.222;2024-03-23T11:36:44;13.07;;;5.30;;
32323;SDS011;25666;44.350;9.222;2024-03-23T11:39:17;12.48;;;5.32;;
32323;SDS011;25666;44.350;9.222;2024-03-23T11:41:53;14.55;;;5.10;;
32323;SDS011;25666;44.350;9.222;2024-03-23T11:44:22;12.68;;;5.35;;
32323;SDS011;25666;44.350;9.222;2024-03-23T11:46:50;12.80;;;5.13;;
32323;SDS011;25666;44.350;9.222;2024-03-23T11:49:23;17.88;;;4.90;;
32323;SDS011;25666;44.350;9.222;2024-03-23T11:51:50;10.88;;;5.20;;
32323;SDS011;25666;44.350;9.222;2024-03-23T11:54:19;10.80;;;5.10;;
32323;SDS011;25666;44.350;9.222;2024-03-23T11:56:56;16.58;;;5.95;;
32323;SDS011;25666;44.350;9.222;2024-03-23T12:01:57;7.63;;;4.00;;
32323;SDS011;25666;44.350;9.222;2024-03-23T12:04:27;15.70;;;5.45;;
32323;SDS011;25666;44.350;9.222;2024-03-23T12:09:38;17.33;;;4.80;;
32323;SDS011;25666;44.350;9.222;2024-03-23T12:12:10;12.55;;;4.43;;
32323;SDS011;25666;44.350;9.222;2024-03-23T12:14:42;11.27;;;4.78;;
32323;SDS011;25666;44.350;9.222;2024-03-23T12:17:12;14.93;;;4.32;;
32323;SDS011;25666;44.350;9.222;2024-03-23T12:19:39;14.75;;;4.40;;
32323;SDS011;25666;44.350;9.222;2024-03-23T12:22:07;6.90;;;4.20;;
32323;SDS011;25666;44.350;9.222;2024-03-23T12:24:35;11.75;;;4.22;;
32323;SDS011;25666;44.350;9.222;2024-03-23T12:27:02;11.00;;;4.40;;
32323;SDS011;25666;44.350;9.222;2024-03-23T12:29:30;10.93;;;4.40;;
32323;SDS011;25666;44.350;9.222;2024-03-23T12:32:00;10.52;;;4.82;;
32323;SDS011;25666;44.350;9.222;2024-03-23T12:34:26;15.55;;;6.00;;
32323;SDS011;25666;44.350;9.222;2024-03-23T12:36:53;9.38;;;5.13;;
32323;SDS011;25666;44.350;9.222;2024-03-23T12:39:19;11.40;;;4.18;;
32323;SDS011;25666;44.350;9.222;2024-03-23T12:41:46;11.65;;;5.95;;
32323;SDS011;25666;44.350;9.222;2024-03-23T12:44:13;15.77;;;5.18;;
32323;SDS011;25666;44.350;9.222;2024-03-23T12:46:43;17.23;;;4.50;;
32323;SDS011;25666;44.350;9.222;2024-03-23T12:49:10;19.00;;;4.90;;
32323;SDS011;25666;44.350;9.222;2024-03-23T12:51:36;14.10;;;4.45;;
32323;SDS011;25666;44.350;9.222;2024-03-23T12:54:02;12.02;;;5.05;;
32323;SDS011;25666;44.350;9.222;2024-03-23T12:56:29;12.07;;;3.85;;
32323;SDS011;25666;44.350;9.222;2024-03-23T12:58:55;12.02;;;5.53;;
32323;SDS011;25666;44.350;9.222;2024-03-23T13:01:25;11.75;;;4.30;;
32323;SDS011;25666;44.350;9.222;2024-03-23T13:03:51;14.55;;;4.20;;
32323;SDS011;25666;44.350;9.222;2024-03-23T13:06:18;12.20;;;3.83;;
32323;SDS011;25666;44.350;9.222;2024-03-23T13:08:44;10.00;;;4.40;;
32323;SDS011;25666;44.350;9.222;2024-03-23T13:11:11;17.48;;;5.18;;
32323;SDS011;25666;44.350;9.222;2024-03-23T13:13:37;17.05;;;4.97;;
32323;SDS011;25666;44.350;9.222;2024-03-23T13:16:03;11.20;;;4.97;;
32323;SDS011;25666;44.350;9.222;2024-03-23T13:18:30;12.65;;;4.18;;
32323;SDS011;25666;44.350;9.222;2024-03-23T13:20:56;15.57;;;4.75;;
32323;SDS011;25666;44.350;9.222;2024-03-23T13:23:22;15.95;;;4.45;;
32323;SDS011;25666;44.350;9.222;2024-03-23T13:25:51;20.58;;;5.22;;
32323;SDS011;25666;44.350;9.222;2024-03-23T13:28:19;17.88;;;4.68;;
32323;SDS011;25666;44.350;9.222;2024-03-23T13:30:52;10.70;;;5.28;;
32323;SDS011;25666;44.350;9.222;2024-03-23T13:33:19;15.40;;;5.70;;
32323;SDS011;25666;44.350;9.222;2024-03-23T13:35:52;14.93;;;6.80;;
32323;SDS011;25666;44.350;9.222;2024-03-23T13:38:18;21.17;;;5.72;;
32323;SDS011;25666;44.350;9.222;2024-03-23T13:40:54;11.95;;;5.95;;
32323;SDS011;25666;44.350;9.222;2024-03-23T13:43:21;18.85;;;6.00;;
32323;SDS011;25666;44.350;9.222;2024-03-23T13:45:48;23.17;;;6.93;;
32323;SDS011;25666;44.350;9.222;2024-03-23T13:48:15;18.63;;;5.80;;
32323;SDS011;25666;44.350;9.222;2024-03-23T13:50:43;10.68;;;5.88;;
32323;SDS011;25666;44.350;9.222;2024-03-23T13:53:08;17.30;;;6.13;;
32323;SDS011;25666;44.350;9.222;2024-03-23T13:55:34;26.27;;;6.40;;
32323;SDS011;25666;44.350;9.222;2024-03-23T13:57:59;14.27;;;6.15;;
32323;SDS011;25666;44.350;9.222;2024-03-23T14:00:25;17.00;;;6.40;;
32323;SDS011;25666;44.350;9.222;2024-03-23T14:02:50;22.70;;;7.43;;
32323;SDS011;25666;44.350;9.222;2024-03-23T14:05:16;14.65;;;6.90;;
32323;SDS011;25666;44.350;9.222;2024-03-23T14:07:42;20.92;;;7.32;;
32323;SDS011;25666;44.350;9.222;2024-03-23T14:10:07;19.67;;;7.80;;
32323;SDS011;25666;44.350;9.222;2024-03-23T14:12:36;17.70;;;6.45;;
32323;SDS011;25666;44.350;9.222;2024-03-23T14:15:05;21.75;;;7.35;;
32323;SDS011;25666;44.350;9.222;2024-03-23T14:17:31;16.23;;;6.40;;
32323;SDS011;25666;44.350;9.222;2024-03-23T14:19:56;16.83;;;6.03;;
32323;SDS011;25666;44.350;9.222;2024-03-23T14:22:26;19.15;;;6.18;;
32323;SDS011;25666;44.350;9.222;2024-03-23T14:24:54;20.30;;;6.25;;
32323;SDS011;25666;44.350;9.222;2024-03-23T14:27:20;21.27;;;6.80;;
32323;SDS011;25666;44.350;9.222;2024-03-23T14:29:47;22.15;;;7.43;;
32323;SDS011;25666;44.350;9.222;2024-03-23T14:32:12;16.27;;;6.53;;
32323;SDS011;25666;44.350;9.222;2024-03-23T14:34:38;26.75;;;7.20;;
32323;SDS011;25666;44.350;9.222;2024-03-23T14:37:04;23.25;;;6.25;;
32323;SDS011;25666;44.350;9.222;2024-03-23T14:39:30;18.92;;;6.45;;
32323;SDS011;25666;44.350;9.222;2024-03-23T14:41:56;31.60;;;8.50;;
32323;SDS011;25666;44.350;9.222;2024-03-23T14:44:22;29.15;;;7.00;;
32323;SDS011;25666;44.350;9.222;2024-03-23T14:46:48;29.25;;;7.75;;
32323;SDS011;25666;44.350;9.222;2024-03-23T14:49:14;18.67;;;7.28;;
32323;SDS011;25666;44.350;9.222;2024-03-23T14:51:43;33.33;;;8.02;;
32323;SDS011;25666;44.350;9.222;2024-03-23T14:54:08;18.25;;;7.28;;
32323;SDS011;25666;44.350;9.222;2024-03-23T14:56:35;23.65;;;7.07;;
32323;SDS011;25666;44.350;9.222;2024-03-23T14:59:00;24.23;;;7.32;;
32323;SDS011;25666;44.350;9.222;2024-03-23T15:01:26;23.75;;;9.18;;
32323;SDS011;25666;44.350;9.222;2024-03-23T15:03:51;20.38;;;6.80;;
32323;SDS011;25666;44.350;9.222;2024-03-23T15:06:18;28.27;;;8.90;;
32323;SDS011;25666;44.350;9.222;2024-03-23T15:08:44;15.65;;;6.63;;
32323;SDS011;25666;44.350;9.222;2024-03-23T15:11:10;22.25;;;7.93;;
32323;SDS011;25666;44.350;9.222;2024-03-23T15:13:36;25.58;;;7.03;;
32323;SDS011;25666;44.350;9.222;2024-03-23T15:16:03;17.65;;;6.47;;
32323;SDS011;25666;44.350;9.222;2024-03-23T15:18:29;24.30;;;7.25;;
32323;SDS011;25666;44.350;9.222;2024-03-23T15:20:55;20.67;;;7.13;;
32323;SDS011;25666;44.350;9.222;2024-03-23T15:23:21;13.30;;;6.65;;
32323;SDS011;25666;44.350;9.222;2024-03-23T15:25:54;14.32;;;6.45;;
32323;SDS011;25666;44.350;9.222;2024-03-23T15:28:20;12.25;;;5.97;;
32323;SDS011;25666;44.350;9.222;2024-03-23T15:30:47;15.07;;;7.10;;
32323;SDS011;25666;44.350;9.222;2024-03-23T15:33:12;16.15;;;6.40;;
32323;SDS011;25666;44.350;9.222;2024-03-23T15:35:38;16.73;;;7.65;;
32323;SDS011;25666;44.350;9.222;2024-03-23T15:38:03;36.50;;;8.98;;
32323;SDS011;25666;44.350;9.222;2024-03-23T15:40:29;23.83;;;8.30;;